createdAt,value
2018-10-09T00:02:10.104Z,13.60
2018-10-09T00:04:38.264Z,13.60
2018-10-09T00:07:06.456Z,13.50
2018-10-09T00:09:34.621Z,13.50
2018-10-09T00:12:02.818Z,13.50
2018-10-09T00:14:30.939Z,13.40
2018-10-09T00:16:59.091Z,13.50
2018-10-09T00:19:27.234Z,13.40
2018-10-09T00:21:55.407Z,13.30
2018-10-09T00:24:23.534Z,13.30
2018-10-09T00:26:51.654Z,13.30
2018-10-09T00:29:19.806Z,13.20
2018-10-09T00:31:47.937Z,13.20
2018-10-09T00:34:16.125Z,13.00
2018-10-09T00:36:44.256Z,13.00
2018-10-09T00:39:12.428Z,13.10
2018-10-09T00:41:40.570Z,13.00
2018-10-09T00:44:08.847Z,13.00
2018-10-09T00:46:37.159Z,12.90
2018-10-09T00:49:05.681Z,12.80
2018-10-09T00:51:33.832Z,12.70
2018-10-09T00:54:01.996Z,12.60
2018-10-09T00:56:30.130Z,12.50
2018-10-09T00:58:59.346Z,12.50
2018-10-09T01:01:27.488Z,12.60
2018-10-09T01:03:55.648Z,12.60
2018-10-09T01:06:23.837Z,12.70
2018-10-09T01:08:51.989Z,12.60
2018-10-09T01:11:20.164Z,12.60
2018-10-09T01:13:48.373Z,12.60
2018-10-09T01:16:16.521Z,12.50
2018-10-09T01:18:44.661Z,12.40
2018-10-09T01:21:12.872Z,12.40
2018-10-09T01:23:41.045Z,12.30
2018-10-09T01:26:09.248Z,12.30
2018-10-09T01:28:37.453Z,12.30
2018-10-09T01:31:05.669Z,12.30
2018-10-09T01:33:33.813Z,12.20
2018-10-09T01:36:01.962Z,12.20
2018-10-09T01:38:30.136Z,12.20
2018-10-09T01:40:58.313Z,12.20
2018-10-09T01:43:26.501Z,12.20
2018-10-09T01:45:54.652Z,12.10
2018-10-09T01:48:23.004Z,12.10
2018-10-09T01:50:51.137Z,12.10
2018-10-09T01:53:19.321Z,12.10
2018-10-09T01:55:47.549Z,12.10
2018-10-09T01:58:15.712Z,12.10
2018-10-09T02:00:43.876Z,12.00
2018-10-09T02:03:12.021Z,11.90
2018-10-09T02:05:40.165Z,11.90
2018-10-09T02:08:08.312Z,11.90
2018-10-09T02:10:36.481Z,11.80
2018-10-09T02:13:04.608Z,11.90
2018-10-09T02:15:32.752Z,11.80
2018-10-09T02:18:00.948Z,11.90
2018-10-09T02:20:29.129Z,11.80
2018-10-09T02:22:57.274Z,11.80
2018-10-09T02:25:25.645Z,11.80
2018-10-09T02:27:53.802Z,11.70
2018-10-09T02:30:21.984Z,11.70
2018-10-09T02:32:50.125Z,11.70
2018-10-09T02:35:18.299Z,11.70
2018-10-09T02:37:46.462Z,11.70
2018-10-09T02:40:14.644Z,11.70
2018-10-09T02:42:43.041Z,11.70
2018-10-09T02:45:11.182Z,11.60
2018-10-09T02:47:39.341Z,11.60
2018-10-09T02:50:07.636Z,11.60
2018-10-09T02:52:35.788Z,11.60
2018-10-09T02:55:04.033Z,11.60
2018-10-09T02:57:32.208Z,11.60
2018-10-09T03:00:00.345Z,11.60
2018-10-09T03:02:28.692Z,11.60
2018-10-09T03:04:56.861Z,11.50
2018-10-09T03:07:25.060Z,11.50
2018-10-09T03:09:53.201Z,11.40
2018-10-09T03:12:21.352Z,11.40
2018-10-09T03:14:49.509Z,11.40
2018-10-09T03:17:17.657Z,11.40
2018-10-09T03:19:46.084Z,11.40
2018-10-09T03:22:14.261Z,11.50
2018-10-09T03:24:42.445Z,11.50
2018-10-09T03:27:10.611Z,11.50
2018-10-09T03:29:38.776Z,11.60
2018-10-09T03:32:07.268Z,11.60
2018-10-09T03:34:35.571Z,11.60
2018-10-09T03:37:03.713Z,11.60
2018-10-09T03:39:31.916Z,11.60
2018-10-09T03:42:00.089Z,11.60
2018-10-09T03:44:28.248Z,11.70
2018-10-09T03:46:56.385Z,11.70
2018-10-09T03:49:24.630Z,11.70
2018-10-09T03:51:52.741Z,11.60
2018-10-09T03:54:20.924Z,11.50
2018-10-09T03:56:49.061Z,11.50
2018-10-09T03:59:17.296Z,11.50
2018-10-09T04:01:45.495Z,11.50
2018-10-09T04:04:13.652Z,11.50
2018-10-09T04:06:41.848Z,11.60
2018-10-09T04:09:12.012Z,11.60
2018-10-09T04:11:40.073Z,11.60
2018-10-09T04:14:08.205Z,11.60
2018-10-09T04:16:37.217Z,11.50
2018-10-09T04:19:05.417Z,11.50
2018-10-09T04:21:33.580Z,11.50
2018-10-09T04:24:01.752Z,11.60
2018-10-09T04:26:29.940Z,11.60
2018-10-09T04:28:58.089Z,11.60
2018-10-09T04:31:26.260Z,11.70
2018-10-09T04:33:54.408Z,11.70
2018-10-09T04:36:22.581Z,11.70
2018-10-09T04:38:50.749Z,11.70
2018-10-09T04:41:18.881Z,11.70
2018-10-09T04:43:47.057Z,11.70
2018-10-09T04:46:15.232Z,11.70
2018-10-09T04:48:43.392Z,11.70
2018-10-09T04:51:11.541Z,11.70
2018-10-09T04:53:39.689Z,11.70
2018-10-09T04:56:07.857Z,11.70
2018-10-09T04:58:36.037Z,11.60
2018-10-09T05:01:04.225Z,11.60
2018-10-09T05:03:32.370Z,11.50
2018-10-09T05:06:00.557Z,11.50
2018-10-09T05:08:28.777Z,11.50
2018-10-09T05:10:56.936Z,11.40
2018-10-09T05:13:25.105Z,11.40
2018-10-09T05:15:53.252Z,11.40
2018-10-09T05:18:21.433Z,11.40
2018-10-09T05:20:49.609Z,11.20
2018-10-09T05:23:17.854Z,11.10
2018-10-09T05:25:46.173Z,11.00
2018-10-09T05:28:14.509Z,10.90
2018-10-09T05:30:42.664Z,10.80
2018-10-09T05:33:10.817Z,10.70
2018-10-09T05:35:39.005Z,10.70
2018-10-09T05:38:07.216Z,10.70
2018-10-09T05:40:35.336Z,10.70
2018-10-09T05:43:03.474Z,10.70
2018-10-09T05:45:36.184Z,10.80
2018-10-09T05:48:04.391Z,10.80
2018-10-09T05:50:32.552Z,10.70
2018-10-09T05:53:00.723Z,10.70
2018-10-09T05:55:28.897Z,10.60
2018-10-09T05:57:57.092Z,10.60
2018-10-09T06:00:25.253Z,10.70
2018-10-09T06:02:53.429Z,10.80
2018-10-09T06:05:21.578Z,10.80
2018-10-09T06:07:49.755Z,10.80
2018-10-09T06:10:18.033Z,10.80
2018-10-09T06:12:46.200Z,10.80
2018-10-09T06:15:14.325Z,10.80
2018-10-09T06:17:42.509Z,10.70
2018-10-09T06:20:10.775Z,10.70
2018-10-09T06:22:38.942Z,10.70
2018-10-09T06:25:07.201Z,10.70
2018-10-09T06:27:35.337Z,10.70
2018-10-09T06:30:03.512Z,10.70
2018-10-09T06:32:32.621Z,10.70
2018-10-09T06:35:00.833Z,10.80
2018-10-09T06:37:29.028Z,10.80
2018-10-09T06:39:57.168Z,10.90
2018-10-09T06:42:25.370Z,10.90
2018-10-09T06:44:53.499Z,10.90
2018-10-09T06:47:21.667Z,11.00
2018-10-09T06:49:49.792Z,11.00
2018-10-09T06:52:17.996Z,11.10
2018-10-09T06:54:46.394Z,11.10
2018-10-09T06:57:14.301Z,11.20
2018-10-09T06:59:42.457Z,11.30
2018-10-09T07:02:10.633Z,11.40
2018-10-09T07:04:38.822Z,11.40
2018-10-09T07:07:07.134Z,11.50
2018-10-09T07:09:35.306Z,11.60
2018-10-09T07:12:03.524Z,11.60
2018-10-09T07:14:31.671Z,11.70
2018-10-09T07:16:59.898Z,11.70
2018-10-09T07:19:28.036Z,11.80
2018-10-09T07:21:56.226Z,11.90
2018-10-09T07:24:24.577Z,11.90
2018-10-09T07:26:52.721Z,12.00
2018-10-09T07:29:20.887Z,12.00
2018-10-09T07:31:49.041Z,12.10
2018-10-09T07:34:17.197Z,12.10
2018-10-09T07:36:45.369Z,12.20
2018-10-09T07:39:14.118Z,12.30
2018-10-09T07:41:42.899Z,12.30
2018-10-09T07:44:11.315Z,12.40
2018-10-09T07:46:39.434Z,12.50
2018-10-09T07:49:07.585Z,12.60
2018-10-09T07:51:35.796Z,12.70
2018-10-09T07:54:03.985Z,12.80
2018-10-09T07:56:32.331Z,12.90
2018-10-09T07:59:00.486Z,13.00
2018-10-09T08:01:28.642Z,13.10
2018-10-09T08:03:56.973Z,13.20
2018-10-09T08:06:25.141Z,13.30
2018-10-09T08:08:53.313Z,13.40
2018-10-09T08:11:21.482Z,13.50
2018-10-09T08:13:49.885Z,13.70
2018-10-09T08:16:18.143Z,13.70
2018-10-09T08:18:47.083Z,13.80
2018-10-09T08:21:15.358Z,13.90
2018-10-09T08:23:43.501Z,14.00
2018-10-09T08:26:11.874Z,14.00
2018-10-09T08:28:40.069Z,14.20
2018-10-09T08:31:09.013Z,14.30
2018-10-09T08:33:37.162Z,14.30
2018-10-09T08:36:14.575Z,14.50
2018-10-09T08:38:50.831Z,14.60
2018-10-09T08:41:26.852Z,14.70
2018-10-09T08:43:55.490Z,14.90
2018-10-09T08:46:23.716Z,15.10
2018-10-09T08:48:51.757Z,15.20
2018-10-09T08:51:19.955Z,15.30
2018-10-09T08:53:48.090Z,15.40
2018-10-09T08:56:16.269Z,15.40
2018-10-09T08:58:44.408Z,15.60
2018-10-09T09:01:12.605Z,15.70
2018-10-09T09:03:40.876Z,15.90
2018-10-09T09:06:09.015Z,16.00
2018-10-09T09:08:37.162Z,16.10
2018-10-09T09:11:05.609Z,16.20
2018-10-09T09:13:33.752Z,16.20
2018-10-09T09:16:01.959Z,16.30
2018-10-09T09:18:30.129Z,16.40
2018-10-09T09:20:58.364Z,16.50
2018-10-09T09:23:26.461Z,16.60
2018-10-09T09:25:54.621Z,16.70
2018-10-09T09:28:22.825Z,16.90
2018-10-09T09:30:51.031Z,17.00
2018-10-09T09:33:19.283Z,17.10
2018-10-09T09:35:47.400Z,17.20
2018-10-09T09:38:15.569Z,17.30
2018-10-09T09:40:43.782Z,17.50
2018-10-09T09:43:11.923Z,17.60
2018-10-09T09:45:40.100Z,17.70
2018-10-09T09:48:08.269Z,17.80
2018-10-09T09:50:36.461Z,17.90
2018-10-09T09:53:04.606Z,18.10
2018-10-09T09:55:32.761Z,18.20
2018-10-09T09:58:01.022Z,18.30
2018-10-09T10:00:34.334Z,18.40
2018-10-09T10:03:02.538Z,18.50
2018-10-09T10:05:30.654Z,18.70
2018-10-09T10:07:58.809Z,18.80
2018-10-09T10:10:26.978Z,18.90
2018-10-09T10:12:55.157Z,19.10
2018-10-09T10:15:23.349Z,19.10
2018-10-09T10:17:51.514Z,19.20
2018-10-09T10:20:19.705Z,19.20
2018-10-09T10:22:47.845Z,19.20
2018-10-09T10:25:16.069Z,19.30
2018-10-09T10:27:44.186Z,19.40
2018-10-09T10:30:12.350Z,19.40
2018-10-09T10:32:40.533Z,19.50
2018-10-09T10:35:08.693Z,19.50
2018-10-09T10:37:36.867Z,19.60
2018-10-09T10:40:05.347Z,19.70
2018-10-09T10:42:33.545Z,19.70
2018-10-09T10:45:01.686Z,19.70
2018-10-09T10:47:29.868Z,19.90
2018-10-09T10:49:58.047Z,20.00
2018-10-09T10:52:26.197Z,20.20
2018-10-09T10:54:54.403Z,20.20
2018-10-09T10:57:22.537Z,20.40
2018-10-09T10:59:50.855Z,20.50
2018-10-09T11:02:19.033Z,20.70
2018-10-09T11:04:47.206Z,20.70
2018-10-09T11:07:15.412Z,20.70
2018-10-09T11:09:43.588Z,20.70
2018-10-09T11:12:11.825Z,20.80
2018-10-09T11:14:40.045Z,20.70
2018-10-09T11:17:08.159Z,20.70
2018-10-09T11:19:36.317Z,20.70
2018-10-09T11:22:04.565Z,20.70
2018-10-09T11:24:32.705Z,20.80
2018-10-09T11:27:00.881Z,20.90
2018-10-09T11:29:29.047Z,20.90
2018-10-09T11:31:57.181Z,21.00
2018-10-09T11:34:25.330Z,21.20
2018-10-09T11:36:53.511Z,21.30
2018-10-09T11:39:21.690Z,21.50
2018-10-09T11:41:49.812Z,21.60
2018-10-09T11:44:17.957Z,21.70
2018-10-09T11:46:46.105Z,21.90
2018-10-09T11:49:14.289Z,22.10
2018-10-09T11:51:42.444Z,22.20
2018-10-09T11:54:10.609Z,22.30
2018-10-09T11:56:38.753Z,22.50
2018-10-09T11:59:07.126Z,22.60
2018-10-09T12:01:35.261Z,22.70
2018-10-09T12:04:03.397Z,22.80
2018-10-09T12:06:31.649Z,22.80
2018-10-09T12:08:59.777Z,22.90
2018-10-09T12:11:27.949Z,23.00
2018-10-09T12:13:56.125Z,23.10
2018-10-09T12:16:24.302Z,23.30
2018-10-09T12:18:52.444Z,23.50
2018-10-09T12:21:20.654Z,23.70
2018-10-09T12:23:48.761Z,23.80
2018-10-09T12:26:16.909Z,24.00
2018-10-09T12:28:45.041Z,24.20
2018-10-09T12:31:13.233Z,24.30
2018-10-09T12:33:41.361Z,24.40
2018-10-09T12:36:09.535Z,24.40
2018-10-09T12:38:37.738Z,24.40
2018-10-09T12:41:06.118Z,24.50
2018-10-09T12:43:34.259Z,24.60
2018-10-09T12:46:02.445Z,24.70
2018-10-09T12:48:30.605Z,25.00
2018-10-09T12:50:58.803Z,25.20
2018-10-09T12:53:26.980Z,25.50
2018-10-09T12:55:55.265Z,25.70
2018-10-09T12:58:23.541Z,26.00
2018-10-09T13:00:51.703Z,26.40
2018-10-09T13:03:19.882Z,26.60
2018-10-09T13:05:48.036Z,26.70
2018-10-09T13:08:16.205Z,26.80
2018-10-09T13:10:44.383Z,26.80
2018-10-09T13:13:12.584Z,26.90
2018-10-09T13:15:40.733Z,26.90
2018-10-09T13:18:08.873Z,27.10
2018-10-09T13:20:36.999Z,27.20
2018-10-09T13:23:10.013Z,27.10
2018-10-09T13:25:38.220Z,27.00
2018-10-09T13:28:06.333Z,26.80
2018-10-09T13:30:34.493Z,26.90
2018-10-09T13:33:02.673Z,26.90
2018-10-09T13:35:30.837Z,26.70
2018-10-09T13:37:59.039Z,26.60
2018-10-09T13:40:27.113Z,26.20
2018-10-09T13:42:55.265Z,25.90
2018-10-09T13:45:23.479Z,25.50
2018-10-09T13:47:51.630Z,25.40
2018-10-09T13:50:19.824Z,25.20
2018-10-09T13:52:48.035Z,25.10
2018-10-09T13:55:16.235Z,24.90
2018-10-09T13:57:44.353Z,24.90
2018-10-09T14:00:12.537Z,24.90
2018-10-09T14:02:40.721Z,24.70
2018-10-09T14:05:08.873Z,24.60
2018-10-09T14:07:37.056Z,24.70
2018-10-09T14:10:05.400Z,24.80
2018-10-09T14:12:33.714Z,24.90
2018-10-09T14:15:02.045Z,25.00
2018-10-09T14:17:30.169Z,24.90
2018-10-09T14:19:58.346Z,25.00
2018-10-09T14:22:26.642Z,25.20
2018-10-09T14:24:54.695Z,25.40
2018-10-09T14:27:22.840Z,25.30
2018-10-09T14:29:50.982Z,25.40
2018-10-09T14:32:19.153Z,25.40
2018-10-09T14:34:47.392Z,25.30
2018-10-09T14:37:15.556Z,25.20
2018-10-09T14:39:43.685Z,25.10
2018-10-09T14:42:11.807Z,25.10
2018-10-09T14:44:40.161Z,25.20
2018-10-09T14:47:08.329Z,25.10
2018-10-09T14:49:36.461Z,24.90
2018-10-09T14:52:04.633Z,24.80
2018-10-09T14:54:32.806Z,24.60
2018-10-09T14:57:00.965Z,24.50
2018-10-09T14:59:29.141Z,24.50
2018-10-09T15:01:57.364Z,24.40
2018-10-09T15:04:25.538Z,24.60
2018-10-09T15:06:53.759Z,24.50
2018-10-09T15:09:21.975Z,24.60
2018-10-09T15:11:50.127Z,24.60
2018-10-09T15:14:18.215Z,24.50
2018-10-09T15:16:46.447Z,24.50
2018-10-09T15:19:14.685Z,24.50
2018-10-09T15:21:42.901Z,24.60
2018-10-09T15:24:11.053Z,24.70
2018-10-09T15:26:39.297Z,24.90
2018-10-09T15:29:07.539Z,24.90
2018-10-09T15:31:35.674Z,24.80
2018-10-09T15:34:03.840Z,24.70
2018-10-09T15:36:32.123Z,24.90
2018-10-09T15:39:00.313Z,24.90
2018-10-09T15:41:28.577Z,24.90
2018-10-09T15:43:56.739Z,24.90
2018-10-09T15:46:25.018Z,24.80
2018-10-09T15:48:53.189Z,24.80
2018-10-09T15:51:21.354Z,24.70
2018-10-09T15:53:49.568Z,24.60
2018-10-09T15:56:17.695Z,24.60
2018-10-09T15:58:45.933Z,24.40
2018-10-09T16:01:14.158Z,24.30
2018-10-09T16:03:42.319Z,24.10
2018-10-09T16:06:10.513Z,24.20
2018-10-09T16:08:38.658Z,24.30
2018-10-09T16:11:06.873Z,24.30
2018-10-09T16:13:35.005Z,24.30
2018-10-09T16:16:03.134Z,24.30
2018-10-09T16:18:31.445Z,24.20
2018-10-09T16:21:00.038Z,24.20
2018-10-09T16:23:28.362Z,24.10
2018-10-09T16:25:56.804Z,24.00
2018-10-09T16:28:25.283Z,23.80
2018-10-09T16:30:53.589Z,23.80
2018-10-09T16:33:22.039Z,23.60
2018-10-09T16:35:50.234Z,23.60
2018-10-09T16:38:19.248Z,23.40
2018-10-09T16:40:47.434Z,23.30
2018-10-09T16:43:15.637Z,23.20
2018-10-09T16:45:43.927Z,23.10
2018-10-09T16:48:12.934Z,23.00
2018-10-09T16:50:41.143Z,22.80
2018-10-09T16:53:09.689Z,22.70
2018-10-09T16:55:37.897Z,22.50
2018-10-09T16:58:06.171Z,22.20
2018-10-09T17:00:34.512Z,22.10
2018-10-09T17:03:06.174Z,22.00
2018-10-09T17:05:38.359Z,21.90
2018-10-09T17:08:10.903Z,21.70
2018-10-09T17:10:39.786Z,21.70
2018-10-09T17:13:07.966Z,21.50
2018-10-09T17:15:36.585Z,21.40
2018-10-09T17:18:04.710Z,21.40
2018-10-09T17:20:33.242Z,21.30
2018-10-09T17:23:01.701Z,21.20
2018-10-09T17:25:29.951Z,21.10
2018-10-09T17:27:58.701Z,21.10
2018-10-09T17:30:26.885Z,21.00
2018-10-09T17:32:55.069Z,20.80
2018-10-09T17:35:23.225Z,20.70
2018-10-09T17:37:51.570Z,20.60
2018-10-09T17:40:19.749Z,20.60
2018-10-09T17:42:48.506Z,20.40
2018-10-09T17:45:17.181Z,20.40
2018-10-09T17:47:45.915Z,20.30
2018-10-09T17:50:14.357Z,20.20
2018-10-09T17:52:42.519Z,20.20
2018-10-09T17:55:11.505Z,20.20
2018-10-09T17:57:39.684Z,20.10
2018-10-09T18:00:08.878Z,20.10
2018-10-09T18:02:37.205Z,20.00
2018-10-09T18:05:05.551Z,20.00
2018-10-09T18:07:33.669Z,19.90
2018-10-09T18:10:01.841Z,19.80
2018-10-09T18:12:29.965Z,19.70
2018-10-09T18:14:58.142Z,19.70
2018-10-09T18:17:26.313Z,19.60
2018-10-09T18:19:54.477Z,19.50
2018-10-09T18:22:22.665Z,19.50
2018-10-09T18:24:50.865Z,19.30
2018-10-09T18:27:19.118Z,19.30
2018-10-09T18:29:47.285Z,19.10
2018-10-09T18:32:15.409Z,19.00
2018-10-09T18:34:43.543Z,18.90
2018-10-09T18:37:11.705Z,18.90
2018-10-09T18:39:39.841Z,18.70
2018-10-09T18:42:08.060Z,18.70
2018-10-09T18:44:36.169Z,18.60
2018-10-09T18:47:08.573Z,18.60
2018-10-09T18:49:36.735Z,18.40
2018-10-09T18:52:04.897Z,18.40
2018-10-09T18:54:33.095Z,18.30
2018-10-09T18:57:01.253Z,18.20
2018-10-09T18:59:29.393Z,18.20
2018-10-09T19:01:57.570Z,18.10
2018-10-09T19:04:25.715Z,18.10
2018-10-09T19:06:53.858Z,18.00
2018-10-09T19:09:22.081Z,18.00
2018-10-09T19:11:50.253Z,18.00
2018-10-09T19:14:18.499Z,18.00
2018-10-09T19:16:46.597Z,17.90
2018-10-09T19:19:14.746Z,17.90
2018-10-09T19:21:43.147Z,17.90
2018-10-09T19:24:11.451Z,17.80
2018-10-09T19:26:39.631Z,17.70
2018-10-09T19:29:07.797Z,17.70
2018-10-09T19:31:35.969Z,17.60
2018-10-09T19:34:04.141Z,17.50
2018-10-09T19:36:32.293Z,17.50
2018-10-09T19:39:00.482Z,17.50
2018-10-09T19:41:28.665Z,17.50
2018-10-09T19:43:56.797Z,17.40
2018-10-09T19:46:24.957Z,17.40
2018-10-09T19:48:53.154Z,17.30
2018-10-09T19:51:21.479Z,17.20
2018-10-09T19:53:49.481Z,17.20
2018-10-09T19:56:17.655Z,17.10
2018-10-09T19:58:45.803Z,17.10
2018-10-09T20:01:16.086Z,17.00
2018-10-09T20:03:44.226Z,17.10
2018-10-09T20:06:14.335Z,17.10
2018-10-09T20:08:42.549Z,17.10
2018-10-09T20:11:10.718Z,17.00
2018-10-09T20:13:39.030Z,17.00
2018-10-09T20:16:07.854Z,17.00
2018-10-09T20:18:36.152Z,17.00
2018-10-09T20:21:04.422Z,16.90
2018-10-09T20:23:32.610Z,16.90
2018-10-09T20:26:00.867Z,16.90
2018-10-09T20:28:29.029Z,16.90
2018-10-09T20:30:57.224Z,16.80
2018-10-09T20:33:25.453Z,16.80
2018-10-09T20:35:53.527Z,16.80
2018-10-09T20:38:21.972Z,16.70
2018-10-09T20:40:50.149Z,16.70
2018-10-09T20:43:18.350Z,16.70
2018-10-09T20:45:46.517Z,16.60
2018-10-09T20:48:14.693Z,16.60
2018-10-09T20:50:42.877Z,16.50
2018-10-09T20:53:11.096Z,16.60
2018-10-09T20:55:39.258Z,16.50
2018-10-09T20:58:07.439Z,16.50
2018-10-09T21:00:35.637Z,16.40
2018-10-09T21:03:03.849Z,16.30
2018-10-09T21:05:32.174Z,16.30
2018-10-09T21:08:00.371Z,16.40
2018-10-09T21:10:28.677Z,16.30
2018-10-09T21:12:56.832Z,16.20
2018-10-09T21:15:25.164Z,16.10
2018-10-09T21:17:53.558Z,16.10
2018-10-09T21:20:21.713Z,16.10
2018-10-09T21:22:49.865Z,16.00
2018-10-09T21:25:18.020Z,15.90
2018-10-09T21:27:46.222Z,15.80
2018-10-09T21:30:14.483Z,15.80
2018-10-09T21:32:42.625Z,15.80
2018-10-09T21:35:10.838Z,15.70
2018-10-09T21:37:39.040Z,15.70
2018-10-09T21:40:07.907Z,15.70
2018-10-09T21:42:36.049Z,15.60
2018-10-09T21:45:04.313Z,15.50
2018-10-09T21:47:32.463Z,15.40
2018-10-09T21:50:00.846Z,15.40
2018-10-09T21:52:29.049Z,15.30
2018-10-09T21:54:57.254Z,15.30
2018-10-09T21:57:25.491Z,15.30
2018-10-09T21:59:53.669Z,15.20
2018-10-09T22:02:21.839Z,15.20
2018-10-09T22:04:50.053Z,15.20
2018-10-09T22:07:18.729Z,15.10
2018-10-09T22:09:46.956Z,15.00
2018-10-09T22:12:15.145Z,15.00
2018-10-09T22:14:43.331Z,15.00
2018-10-09T22:17:11.511Z,15.00
2018-10-09T22:19:39.701Z,14.80
2018-10-09T22:22:07.849Z,14.80
2018-10-09T22:24:35.995Z,14.70
2018-10-09T22:27:04.177Z,14.70
2018-10-09T22:29:32.324Z,14.60
2018-10-09T22:32:00.492Z,14.50
2018-10-09T22:34:28.677Z,14.50
2018-10-09T22:36:56.862Z,14.40
2018-10-09T22:39:25.034Z,14.40
2018-10-09T22:41:53.205Z,14.40
2018-10-09T22:44:21.386Z,14.30
2018-10-09T22:46:49.577Z,14.30
2018-10-09T22:49:18.061Z,14.20
2018-10-09T22:51:46.257Z,14.20
2018-10-09T22:54:14.433Z,14.10
2018-10-09T22:56:42.592Z,14.10
2018-10-09T22:59:10.801Z,14.10
2018-10-09T23:01:39.210Z,13.90
2018-10-09T23:04:07.427Z,13.90
2018-10-09T23:06:36.010Z,13.90
2018-10-09T23:09:06.455Z,13.90
2018-10-09T23:11:34.577Z,14.00
2018-10-09T23:14:02.818Z,14.00
2018-10-09T23:16:31.241Z,14.00
2018-10-09T23:18:59.444Z,14.00
2018-10-09T23:21:27.601Z,14.00
2018-10-09T23:23:55.791Z,14.00
2018-10-09T23:26:23.981Z,14.00
2018-10-09T23:28:52.125Z,14.00
2018-10-09T23:31:20.354Z,14.10
2018-10-09T23:33:48.506Z,14.00
2018-10-09T23:36:16.683Z,14.10
2018-10-09T23:38:44.838Z,14.00
2018-10-09T23:41:12.985Z,14.00
2018-10-09T23:43:41.125Z,14.00
2018-10-09T23:46:09.827Z,13.90
2018-10-09T23:48:37.977Z,13.90
2018-10-09T23:51:06.165Z,13.90
2018-10-09T23:53:34.337Z,13.80
2018-10-09T23:56:02.541Z,13.80
2018-10-09T23:58:30.685Z,13.80
